Tuxedo Park, New York
Current Conditions -  °F | °C
As of 3:45 PM on Thursday 20 Nov 2014 (Local Time) from KSWF Reporting Station
Few Clouds Few Clouds  
Wind Chill: 32°   Ceiling: Unl
Heat Index: 41°   Visibility: 20mi
Dew Point: 14°   Wind: 18mph
Humidity: 33%   Direction: 270°W
Pressure: 29.82"   Gusts: 31mph
Location:  41.19°N, 74.18°W
Report Text: KSWF 202045Z 27016G27KT 20SM FEW050 05/M10 A2982
Loading
Personal Weather Stations






























Interactive Weather Map New forecast layout! Learn more

10-Day Weather Forecast

Advertisements
Track Severe Weather on mobile